Time;durP1;ratioP1;P1;durP2;ratioP2;P2;SDS_P1;SDS_P2;PMS_P1;PMS_P2;Temp;Humidity;BMP_temperature;BMP_pressure;BME280_temperature;BME280_humidity;BME280_pressure;Samples;Min_cycle;Max_cycle;Signal;HPM_P1;HPM_P2
2023/06/01 00:01:16;;;;;;;11.40;1.80;;;;;;;11.68;65.26;100516.55;110051;1269;22853;-62
2023/06/01 00:03:47;;;;;;;15.40;2.10;;;;;;;11.64;65.35;100512.98;110018;1270;23008;-60
2023/06/01 00:06:18;;;;;;;15.90;2.20;;;;;;;11.59;65.58;100513.48;110048;1264;22201;-60
2023/06/01 00:08:49;;;;;;;13.70;2.30;;;;;;;11.53;65.72;100517.70;110029;1280;22142;-62
2023/06/01 00:11:20;;;;;;;8.50;1.40;;;;;;;11.48;65.93;100512.77;109991;1270;23077;-61
2023/06/01 00:13:52;;;;;;;15.80;2.50;;;;;;;11.44;65.88;100510.70;110011;1274;22253;-61
2023/06/01 00:16:23;;;;;;;10.00;1.80;;;;;;;11.39;66.20;100510.52;110023;1269;22232;-61
2023/06/01 00:18:56;;;;;;;8.90;1.90;;;;;;;11.35;66.10;100507.29;110016;1274;22208;-61
2023/06/01 00:21:27;;;;;;;9.70;1.90;;;;;;;11.33;66.10;100509.54;110022;1267;22352;-61
2023/06/01 00:23:58;;;;;;;11.50;2.30;;;;;;;11.33;66.25;100508.02;110026;1276;22154;-61
2023/06/01 00:26:31;;;;;;;14.80;2.40;;;;;;;11.29;66.34;100501.77;110009;1270;22369;-61
2023/06/01 00:29:02;;;;;;;11.10;2.10;;;;;;;11.24;66.30;100501.98;109985;1276;22180;-61
2023/06/01 00:31:33;;;;;;;10.20;2.20;;;;;;;11.21;66.49;100501.91;110014;1270;23122;-62
2023/06/01 00:34:04;;;;;;;14.50;2.40;;;;;;;11.19;66.52;100498.67;110028;1273;22801;-61
2023/06/01 00:36:35;;;;;;;11.40;2.30;;;;;;;11.19;66.73;100496.33;110018;1267;22899;-60
2023/06/01 00:39:06;;;;;;;10.90;2.30;;;;;;;11.15;67.06;100499.05;110000;1274;22872;-62
2023/06/01 00:41:37;;;;;;;10.80;2.10;;;;;;;11.08;67.42;100500.63;110020;1274;22312;-61
2023/06/01 00:44:08;;;;;;;14.10;2.60;;;;;;;11.04;67.73;100497.99;109992;1271;22146;-62
2023/06/01 00:46:39;;;;;;;11.70;2.50;;;;;;;10.98;67.67;100503.96;110034;1269;22120;-61
2023/06/01 00:49:10;;;;;;;11.30;2.10;;;;;;;10.94;67.95;100501.66;110034;1270;22194;-62
2023/06/01 00:51:41;;;;;;;16.70;2.80;;;;;;;10.91;68.14;100500.92;109985;1273;22249;-61
2023/06/01 00:54:13;;;;;;;15.70;2.50;;;;;;;10.90;68.04;100497.95;110013;1279;22165;-61
2023/06/01 00:56:43;;;;;;;13.50;2.50;;;;;;;10.87;68.00;100501.00;110015;1279;22180;-61
2023/06/01 00:59:14;;;;;;;11.20;2.00;;;;;;;10.84;68.32;100496.69;110030;1273;22153;-62
2023/06/01 01:01:45;;;;;;;12.90;2.60;;;;;;;10.79;68.46;100496.80;110012;1270;22258;-61
2023/06/01 01:04:25;;;;;;;12.40;2.20;;;;;;;10.77;68.61;100499.09;110014;1273;22182;-61
2023/06/01 01:07:07;;;;;;;11.90;2.00;;;;;;;10.75;68.68;100497.27;109976;1270;22417;-61
2023/06/01 01:09:45;;;;;;;11.60;2.50;;;;;;;10.72;68.60;100493.20;110012;1264;22233;-61
2023/06/01 01:12:27;;;;;;;13.80;2.30;;;;;;;10.69;68.72;100493.34;110017;1280;22171;-62
2023/06/01 01:15:08;;;;;;;10.30;2.50;;;;;;;10.70;69.00;100495.48;110021;1277;22208;-60
2023/06/01 01:17:42;;;;;;;;;;;;;;;10.68;69.21;100494.05;110010;1270;22387;-60
2023/06/01 01:20:19;;;;;;;11.20;2.20;;;;;;;10.63;69.37;100490.45;110024;1264;22252;-62
2023/06/01 01:23:24;;;;;;;9.60;2.20;;;;;;;10.59;69.49;100485.85;109969;1273;22240;-61
2023/06/01 01:26:40;;;;;;;12.70;2.70;;;;;;;10.54;69.77;100491.20;109780;1270;22389;-61
2023/06/01 01:29:14;;;;;;;11.50;2.00;;;;;;;10.49;69.88;100487.77;109785;1283;22194;-62
2023/06/01 01:31:50;;;;;;;11.90;2.10;;;;;;;10.44;70.03;100485.52;109777;1276;22674;-61
2023/06/01 01:34:21;;;;;;;10.20;2.10;;;;;;;10.41;70.06;100481.96;109799;1273;22188;-61
2023/06/01 01:36:53;;;;;;;10.50;2.40;;;;;;;10.36;70.27;100483.80;109777;1273;22213;-61
2023/06/01 01:39:23;;;;;;;15.00;2.30;;;;;;;10.31;70.57;100482.60;109810;1269;23340;-60
2023/06/01 01:41:54;;;;;;;14.50;2.00;;;;;;;10.27;70.68;100481.89;109784;1277;22240;-61
2023/06/01 01:44:25;;;;;;;13.40;2.50;;;;;;;10.24;70.51;100477.02;106928;1273;23341;-61
2023/06/01 01:47:09;;;;;;;9.70;2.10;;;;;;;10.20;70.52;100474.59;105977;1271;25379;-60
2023/06/01 01:49:44;;;;;;;9.70;2.50;;;;;;;10.16;70.52;100476.00;109792;1276;23048;-62
2023/06/01 01:52:19;;;;;;;9.00;1.80;;;;;;;10.12;70.76;100479.54;109798;1282;22852;-61
2023/06/01 01:54:52;;;;;;;14.40;2.00;;;;;;;10.08;71.05;100475.52;106603;1283;22557;-61
2023/06/01 01:57:25;;;;;;;12.70;2.10;;;;;;;10.08;71.00;100471.63;106096;1277;22560;-62
2023/06/01 01:59:57;;;;;;;11.40;2.70;;;;;;;10.08;71.11;100465.43;106161;1283;22549;-62
2023/06/01 02:02:29;;;;;;;10.30;2.30;;;;;;;10.04;71.22;100464.47;109865;1276;22215;-61
2023/06/01 02:05:00;;;;;;;11.20;2.20;;;;;;;10.00;71.36;100461.58;110024;1269;23295;-62
2023/06/01 02:07:30;;;;;;;12.90;2.90;;;;;;;9.96;71.41;100460.02;110028;1270;22414;-62
2023/06/01 02:10:01;;;;;;;11.60;2.50;;;;;;;9.92;71.69;100457.81;110039;1272;22148;-61
2023/06/01 02:12:32;;;;;;;13.10;3.20;;;;;;;9.86;71.89;100454.48;106536;1273;25422;-61
2023/06/01 02:15:04;;;;;;;9.40;2.10;;;;;;;9.81;72.06;100454.98;106558;1280;22635;-62
2023/06/01 02:17:37;;;;;;;13.40;2.70;;;;;;;9.76;72.00;100458.79;110014;1269;22207;-63
2023/06/01 02:20:10;;;;;;;10.60;2.20;;;;;;;9.71;71.96;100457.50;109993;1269;22178;-60
2023/06/01 02:22:41;;;;;;;14.90;2.30;;;;;;;9.67;71.88;100456.58;110013;1273;22149;-61
2023/06/01 02:25:12;;;;;;;9.00;1.80;;;;;;;9.63;71.97;100454.20;109984;1273;22163;-62
2023/06/01 02:27:43;;;;;;;10.30;2.10;;;;;;;9.60;72.07;100453.92;109985;1273;22197;-62
2023/06/01 02:30:14;;;;;;;13.20;2.20;;;;;;;9.57;72.25;100452.11;109994;1273;22172;-61
2023/06/01 02:32:48;;;;;;;8.90;2.30;;;;;;;9.54;72.40;100452.48;110027;1279;22157;-61
2023/06/01 02:35:19;;;;;;;15.10;2.50;;;;;;;9.52;72.33;100450.96;109996;1273;22219;-62
2023/06/01 02:37:50;;;;;;;13.00;2.20;;;;;;;9.49;72.49;100447.23;109972;1273;22412;-60
2023/06/01 02:40:21;;;;;;;10.10;2.50;;;;;;;9.44;72.60;100446.87;109978;1273;22200;-62
2023/06/01 02:42:52;;;;;;;10.80;2.30;;;;;;;9.41;72.73;100445.41;109974;1273;22859;-61
2023/06/01 02:45:23;;;;;;;10.00;1.70;;;;;;;9.38;72.79;100447.37;107955;1273;22546;-60
2023/06/01 02:47:54;;;;;;;8.50;1.90;;;;;;;9.37;72.73;100452.04;106395;1280;24308;-59
2023/06/01 02:50:26;;;;;;;11.70;2.20;;;;;;;9.34;72.75;100441.89;106352;1267;25440;-60
2023/06/01 02:52:57;;;;;;;11.20;2.30;;;;;;;9.31;72.92;100442.92;106368;1276;22576;-61
2023/06/01 02:55:27;;;;;;;8.90;2.20;;;;;;;9.28;73.03;100441.93;106389;1277;22541;-59
2023/06/01 02:57:58;;;;;;;10.50;1.90;;;;;;;9.26;73.10;100437.75;106394;1280;25250;-61
2023/06/01 03:00:29;;;;;;;7.70;1.70;;;;;;;9.23;73.22;100439.86;106447;1273;25392;-59
2023/06/01 03:03:00;;;;;;;9.60;2.20;;;;;;;9.21;73.45;100439.61;106465;1280;22519;-61
2023/06/01 03:05:32;;;;;;;13.50;2.30;;;;;;;9.18;73.71;100442.05;106440;1273;25438;-61
2023/06/01 03:08:03;;;;;;;11.20;2.10;;;;;;;9.16;73.88;100440.91;110020;1276;22224;-61
2023/06/01 03:10:34;;;;;;;10.20;2.30;;;;;;;9.14;73.96;100438.74;110000;1264;22312;-62
2023/06/01 03:13:05;;;;;;;10.30;2.20;;;;;;;9.13;74.11;100437.99;110009;1269;22188;-62
2023/06/01 03:15:37;;;;;;;7.30;1.90;;;;;;;9.12;74.19;100437.32;110002;1273;22971;-61
2023/06/01 03:18:08;;;;;;;11.50;2.10;;;;;;;9.11;74.43;100441.23;110009;1276;22332;-60
2023/06/01 03:20:39;;;;;;;12.90;2.30;;;;;;;9.11;74.49;100443.95;109981;1264;22930;-62
2023/06/01 03:23:10;;;;;;;11.80;2.80;;;;;;;9.13;74.63;100443.41;109999;1270;22170;-60
2023/06/01 03:25:41;;;;;;;12.90;2.30;;;;;;;9.15;74.79;100442.70;109998;1270;22185;-62
2023/06/01 03:28:12;;;;;;;13.40;2.10;;;;;;;9.17;75.08;100439.79;110007;1268;23342;-60
2023/06/01 03:30:43;;;;;;;10.20;1.90;;;;;;;9.20;75.16;100437.21;109990;1276;22171;-61
2023/06/01 03:33:14;;;;;;;14.80;2.50;;;;;;;9.22;75.49;100436.39;110006;1276;22187;-61
2023/06/01 03:35:45;;;;;;;12.60;2.30;;;;;;;9.26;75.53;100435.52;110045;1280;22174;-61
2023/06/01 03:38:16;;;;;;;10.00;2.10;;;;;;;9.29;75.80;100443.01;110006;1267;22920;-61
2023/06/01 03:40:47;;;;;;;14.60;2.80;;;;;;;9.32;76.15;100443.90;110042;1273;22231;-62
2023/06/01 03:43:18;;;;;;;10.30;2.30;;;;;;;9.36;76.26;100446.02;110000;1267;22870;-61
2023/06/01 03:45:49;;;;;;;18.60;2.50;;;;;;;9.39;76.57;100442.82;109984;1272;22372;-64
2023/06/01 03:48:20;;;;;;;11.90;2.00;;;;;;;9.42;76.76;100435.32;110055;1272;23140;-65
2023/06/01 03:50:51;;;;;;;9.10;2.60;;;;;;;9.45;76.92;100436.09;110025;1264;22151;-59
2023/06/01 03:53:22;;;;;;;9.20;2.20;;;;;;;9.49;77.12;100440.19;107179;1265;22651;-60
2023/06/01 03:55:54;;;;;;;11.50;2.40;;;;;;;9.53;77.33;100435.33;106385;1280;22505;-61
2023/06/01 03:58:26;;;;;;;9.30;2.10;;;;;;;9.56;77.62;100435.09;109998;1273;22146;-61
2023/06/01 04:00:58;;;;;;;9.40;2.10;;;;;;;9.59;77.79;100436.72;109999;1273;22161;-61
2023/06/01 04:03:29;;;;;;;10.80;1.90;;;;;;;9.62;77.79;100434.88;110025;1273;22344;-62
2023/06/01 04:06:01;;;;;;;8.20;2.30;;;;;;;9.66;77.87;100432.63;109998;1276;22828;-62
2023/06/01 04:08:32;;;;;;;9.50;2.20;;;;;;;9.69;78.07;100429.13;110024;1269;22171;-62
2023/06/01 04:11:04;;;;;;;9.60;2.20;;;;;;;9.75;77.97;100427.75;109995;1273;22214;-61
2023/06/01 04:13:35;;;;;;;10.60;2.20;;;;;;;9.81;78.28;100424.45;110020;1267;22191;-61
2023/06/01 04:16:07;;;;;;;10.30;2.10;;;;;;;9.88;78.49;100425.17;110040;1273;23754;-55
2023/06/01 04:18:38;;;;;;;14.00;2.60;;;;;;;9.93;78.80;100423.17;109984;1273;22153;-55
2023/06/01 04:21:09;;;;;;;10.20;2.20;;;;;;;9.99;78.75;100421.45;109980;1272;22229;-56
2023/06/01 04:23:42;;;;;;;10.70;2.60;;;;;;;10.07;79.28;100422.29;109992;1273;22200;-57
2023/06/01 04:26:13;;;;;;;17.60;2.80;;;;;;;10.15;79.20;100420.23;109987;1264;22272;-60
2023/06/01 04:28:44;;;;;;;15.00;3.70;;;;;;;10.24;79.37;100416.42;109992;1269;22884;-56
2023/06/01 04:31:18;;;;;;;16.80;4.00;;;;;;;10.34;79.71;100414.49;109993;1273;22377;-58
2023/06/01 04:33:52;;;;;;;16.00;4.20;;;;;;;10.45;79.93;100413.23;110002;1272;23206;-59
2023/06/01 04:36:24;;;;;;;20.40;5.30;;;;;;;10.57;80.46;100408.96;109983;1265;22356;-57
2023/06/01 04:38:54;;;;;;;17.70;6.00;;;;;;;10.69;80.48;100400.48;110021;1273;23033;-58
2023/06/01 04:41:26;;;;;;;19.80;6.10;;;;;;;10.82;80.71;100395.10;110019;1273;22215;-57
2023/06/01 04:43:58;;;;;;;18.60;6.70;;;;;;;10.94;80.39;100396.11;110032;1270;22374;-57
2023/06/01 04:46:29;;;;;;;16.80;5.60;;;;;;;11.06;80.69;100395.94;110020;1274;22279;-55
2023/06/01 04:49:00;;;;;;;18.60;5.60;;;;;;;11.19;80.67;100398.42;110012;1269;23139;-57
2023/06/01 04:51:32;;;;;;;17.20;5.50;;;;;;;11.31;80.64;100397.30;110033;1273;22475;-57
2023/06/01 04:54:04;;;;;;;17.20;4.70;;;;;;;11.45;80.85;100400.95;110078;1279;22158;-57
2023/06/01 04:56:35;;;;;;;15.50;4.40;;;;;;;11.58;80.83;100395.23;110039;1276;22228;-56
2023/06/01 04:59:06;;;;;;;16.90;5.80;;;;;;;11.71;80.19;100395.88;110025;1267;22158;-57
2023/06/01 05:01:38;;;;;;;16.50;4.30;;;;;;;11.83;80.30;100395.43;110013;1273;22309;-57
2023/06/01 05:04:10;;;;;;;16.20;3.60;;;;;;;11.97;80.37;100395.95;110051;1273;22824;-58
2023/06/01 05:06:41;;;;;;;15.50;4.40;;;;;;;12.10;80.31;100393.26;110025;1273;22173;-56
2023/06/01 05:09:13;;;;;;;13.00;3.30;;;;;;;12.24;80.17;100394.83;110059;1279;22346;-59
2023/06/01 05:11:44;;;;;;;15.40;3.30;;;;;;;12.37;79.62;100386.73;109896;1273;22524;-58
2023/06/01 05:14:14;;;;;;;14.00;3.40;;;;;;;12.49;79.25;100385.92;110039;1274;22208;-57
2023/06/01 05:16:46;;;;;;;16.60;3.40;;;;;;;12.60;79.02;100385.42;107521;1264;23972;-57
2023/06/01 05:19:17;;;;;;;12.40;3.00;;;;;;;12.71;78.93;100386.53;110139;1267;22234;-58
2023/06/01 05:21:48;;;;;;;12.80;3.10;;;;;;;12.80;78.83;100379.41;110107;1264;22181;-58
2023/06/01 05:24:20;;;;;;;13.00;3.80;;;;;;;12.90;78.43;100385.89;110116;1264;22153;-59
2023/06/01 05:26:51;;;;;;;21.00;4.10;;;;;;;12.99;78.67;100383.66;110143;1278;22231;-56
2023/06/01 05:29:21;;;;;;;10.80;2.70;;;;;;;13.10;78.61;100385.23;106302;1263;22524;-55
2023/06/01 05:31:53;;;;;;;11.10;2.90;;;;;;;13.22;78.57;100380.27;106297;1277;22568;-56
2023/06/01 05:34:24;;;;;;;12.20;2.80;;;;;;;13.33;77.96;100375.02;110117;1278;22281;-58
2023/06/01 05:36:55;;;;;;;13.60;2.60;;;;;;;13.42;77.69;100376.44;110133;1271;22192;-59
2023/06/01 05:39:28;;;;;;;14.60;3.40;;;;;;;13.51;77.50;100374.59;110118;1271;22492;-58
2023/06/01 05:42:01;;;;;;;13.10;3.30;;;;;;;13.61;77.50;100375.38;110146;1271;22147;-58
2023/06/01 05:44:33;;;;;;;15.60;3.10;;;;;;;13.73;77.16;100374.98;110095;1272;22313;-58
2023/06/01 05:47:04;;;;;;;16.00;3.60;;;;;;;13.84;76.83;100375.12;110139;1272;22796;-57
2023/06/01 05:49:36;;;;;;;14.80;2.70;;;;;;;13.97;76.72;100374.20;110104;1267;23470;-57
2023/06/01 05:52:08;;;;;;;14.10;3.20;;;;;;;14.12;76.52;100371.30;110108;1273;22153;-57
2023/06/01 05:54:39;;;;;;;15.40;3.10;;;;;;;14.27;76.56;100369.86;110117;1264;22163;-57
2023/06/01 05:57:10;;;;;;;17.90;2.80;;;;;;;14.42;76.07;100369.94;110126;1271;22289;-58
2023/06/01 05:59:42;;;;;;;14.20;2.50;;;;;;;14.55;75.65;100367.90;106687;1267;22523;-57
2023/06/01 06:02:14;;;;;;;15.80;3.60;;;;;;;14.70;75.39;100367.50;106090;1264;22530;-57
2023/06/01 06:04:45;;;;;;;11.00;2.20;;;;;;;14.81;75.16;100366.12;106115;1264;25247;-57
2023/06/01 06:07:16;;;;;;;9.60;2.70;;;;;;;14.95;75.21;100360.91;106027;1264;22509;-57
2023/06/01 06:09:46;;;;;;;12.80;2.40;;;;;;;15.12;74.87;100357.34;106238;1278;22537;-55
2023/06/01 06:12:17;;;;;;;12.10;2.80;;;;;;;15.27;74.22;100359.05;106197;1272;22520;-57
2023/06/01 06:14:48;;;;;;;19.80;3.30;;;;;;;15.40;74.08;100362.40;106178;1279;22562;-58
2023/06/01 06:17:19;;;;;;;14.30;2.80;;;;;;;15.57;73.80;100357.33;110061;1274;22255;-58
2023/06/01 06:19:50;;;;;;;14.40;2.80;;;;;;;15.72;73.52;100354.92;110053;1268;22340;-57
2023/06/01 06:22:21;;;;;;;19.50;3.20;;;;;;;15.88;73.40;100355.23;110066;1276;22227;-58
2023/06/01 06:24:52;;;;;;;10.70;2.10;;;;;;;16.06;73.46;100357.86;110067;1271;22192;-56
2023/06/01 06:27:23;;;;;;;13.10;2.10;;;;;;;16.26;72.37;100357.92;110052;1264;22341;-58
2023/06/01 06:29:54;;;;;;;11.20;1.80;;;;;;;16.47;71.74;100359.11;110099;1274;23318;-57
2023/06/01 06:32:25;;;;;;;12.00;2.50;;;;;;;16.66;71.31;100355.94;110071;1265;22144;-56
2023/06/01 06:34:56;;;;;;;13.10;2.20;;;;;;;16.86;71.09;100354.77;110039;1274;22199;-56
2023/06/01 06:37:27;;;;;;;13.10;1.80;;;;;;;17.07;70.62;100354.73;110098;1274;22195;-59
2023/06/01 06:39:58;;;;;;;12.20;1.70;;;;;;;17.28;69.11;100352.74;110094;1276;22181;-58
2023/06/01 06:42:29;;;;;;;14.30;2.70;;;;;;;17.47;66.84;100354.69;110061;1271;22160;-58
2023/06/01 06:45:00;;;;;;;11.20;1.70;;;;;;;17.63;66.70;100354.63;110069;1279;22632;-57
2023/06/01 06:47:30;;;;;;;8.30;1.50;;;;;;;17.78;65.65;100351.79;110079;1271;22310;-57
2023/06/01 06:50:02;;;;;;;14.10;1.70;;;;;;;17.94;64.80;100351.08;110076;1274;22888;-57
2023/06/01 06:52:32;;;;;;;10.70;1.80;;;;;;;18.07;64.10;100351.05;110098;1268;22331;-59
2023/06/01 06:55:04;;;;;;;11.50;1.50;;;;;;;18.20;64.01;100345.22;110092;1276;22150;-58
2023/06/01 06:57:35;;;;;;;12.60;1.70;;;;;;;18.34;62.79;100341.42;110096;1271;22422;-56
2023/06/01 07:00:07;;;;;;;12.20;1.80;;;;;;;18.48;62.40;100335.39;110101;1264;22157;-57
2023/06/01 07:02:38;;;;;;;13.10;2.10;;;;;;;18.61;61.20;100342.13;110086;1274;22193;-57
2023/06/01 07:05:10;;;;;;;8.00;1.50;;;;;;;18.74;60.56;100335.84;110086;1267;22122;-58
2023/06/01 07:07:42;;;;;;;12.60;1.50;;;;;;;18.88;59.75;100336.13;110075;1264;22194;-60
2023/06/01 07:10:13;;;;;;;12.20;1.40;;;;;;;19.00;59.46;100337.31;110084;1269;22356;-59
2023/06/01 07:12:44;;;;;;;8.00;1.50;;;;;;;19.17;59.77;100332.28;110079;1276;22190;-59
2023/06/01 07:15:16;;;;;;;7.90;1.50;;;;;;;19.32;58.86;100331.39;110086;1279;23082;-58
2023/06/01 07:17:47;;;;;;;10.60;1.20;;;;;;;19.46;58.49;100329.40;106338;1279;24391;-58
2023/06/01 07:20:18;;;;;;;8.70;1.80;;;;;;;19.55;57.79;100324.21;106098;1267;22644;-55
2023/06/01 07:22:50;;;;;;;11.50;1.50;;;;;;;19.69;57.56;100322.64;106086;1264;25316;-56
2023/06/01 07:25:21;;;;;;;9.90;1.60;;;;;;;19.82;56.95;100321.44;106089;1276;25344;-59
2023/06/01 07:27:52;;;;;;;8.90;1.30;;;;;;;19.95;56.58;100323.98;106210;1265;22536;-53
2023/06/01 07:30:23;;;;;;;13.00;1.40;;;;;;;20.04;55.26;100326.02;110087;1271;22356;-58
2023/06/01 07:32:54;;;;;;;10.80;2.10;;;;;;;20.08;54.57;100326.93;110064;1279;22232;-57
2023/06/01 07:35:25;;;;;;;13.20;1.40;;;;;;;20.14;54.59;100329.86;110053;1267;22969;-58
2023/06/01 07:37:56;;;;;;;7.90;1.40;;;;;;;20.25;53.66;100326.72;110042;1276;22211;-59
2023/06/01 07:40:27;;;;;;;9.30;1.10;;;;;;;20.35;53.04;100329.71;110069;1273;22996;-59
2023/06/01 07:42:57;;;;;;;5.60;1.30;;;;;;;20.48;51.68;100326.37;110101;1267;22207;-57
2023/06/01 07:45:29;;;;;;;7.80;0.90;;;;;;;20.58;50.70;100327.69;110096;1264;22351;-59
2023/06/01 07:48:00;;;;;;;10.50;1.50;;;;;;;20.66;50.56;100321.86;110123;1279;22227;-58
2023/06/01 07:50:31;;;;;;;7.60;1.20;;;;;;;20.75;49.38;100324.52;107278;1271;26602;-58
2023/06/01 07:53:02;;;;;;;6.10;1.40;;;;;;;20.80;49.36;100319.80;106167;1261;22528;-56
2023/06/01 07:55:34;;;;;;;8.00;1.20;;;;;;;20.86;48.81;100321.33;106192;1267;22520;-56
2023/06/01 07:58:06;;;;;;;6.00;0.90;;;;;;;20.94;47.96;100321.77;106260;1276;22572;-57
2023/06/01 08:00:37;;;;;;;6.50;1.10;;;;;;;20.96;47.22;100321.02;106174;1258;23439;-56
2023/06/01 08:03:08;;;;;;;9.10;1.30;;;;;;;21.01;46.60;100320.04;110094;1279;23122;-59
2023/06/01 08:05:41;;;;;;;7.20;1.10;;;;;;;21.08;46.20;100315.67;110073;1271;22392;-56
2023/06/01 08:08:12;;;;;;;5.70;1.20;;;;;;;21.16;46.36;100319.92;110103;1274;22204;-58
2023/06/01 08:10:43;;;;;;;8.40;1.20;;;;;;;21.25;46.62;100314.77;110085;1272;22191;-58
2023/06/01 08:13:14;;;;;;;6.00;1.00;;;;;;;21.39;45.63;100315.79;110089;1271;22270;-57
2023/06/01 08:15:47;;;;;;;5.70;1.00;;;;;;;21.48;45.51;100313.18;110105;1274;22084;-57
2023/06/01 08:18:19;;;;;;;8.40;1.20;;;;;;;21.57;45.29;100310.77;110092;1279;22919;-59
2023/06/01 08:20:50;;;;;;;8.50;1.60;;;;;;;21.65;44.96;100313.57;110127;1279;22200;-59
2023/06/01 08:23:22;;;;;;;6.20;1.10;;;;;;;21.69;44.62;100310.88;110115;1267;22159;-58
2023/06/01 08:25:53;;;;;;;5.10;1.00;;;;;;;21.71;42.76;100314.91;110066;1274;22294;-59
2023/06/01 08:28:24;;;;;;;5.90;1.00;;;;;;;21.75;42.23;100314.98;110112;1269;22981;-58
2023/06/01 08:30:56;;;;;;;5.90;0.90;;;;;;;21.78;42.41;100308.60;110083;1274;22256;-58
2023/06/01 08:33:27;;;;;;;4.50;0.90;;;;;;;21.83;41.77;100306.73;110098;1263;22290;-58
2023/06/01 08:35:57;;;;;;;5.10;0.90;;;;;;;21.91;41.18;100305.09;110086;1279;22157;-58
2023/06/01 08:38:32;;;;;;;6.10;0.90;;;;;;;21.96;41.05;100305.20;110091;1274;22321;-56
2023/06/01 08:41:04;;;;;;;6.20;0.80;;;;;;;22.01;40.72;100302.60;110106;1264;22363;-58
2023/06/01 08:43:39;;;;;;;5.00;1.00;;;;;;;22.09;40.48;100303.61;110101;1276;22322;-70
2023/06/01 08:46:11;;;;;;;4.70;0.80;;;;;;;22.13;38.72;100303.52;110097;1265;22225;-62
2023/06/01 08:48:44;;;;;;;8.70;0.70;;;;;;;22.14;38.90;100293.61;110133;1271;22609;-60
2023/06/01 08:51:15;;;;;;;4.10;0.70;;;;;;;22.17;38.78;100288.92;110081;1274;22723;-61
2023/06/01 08:53:50;;;;;;;3.30;0.80;;;;;;;22.24;38.55;100284.23;110125;1271;22218;-61
2023/06/01 08:56:21;;;;;;;4.80;0.80;;;;;;;22.31;38.36;100279.23;107586;1276;22545;-60
2023/06/01 08:58:52;;;;;;;6.70;0.90;;;;;;;22.37;38.07;100271.66;108282;1268;24220;-61
2023/06/01 09:01:23;;;;;;;6.80;1.00;;;;;;;22.43;38.15;100269.09;106028;1264;22537;-60
2023/06/01 09:03:55;;;;;;;4.60;1.00;;;;;;;22.51;38.25;100264.42;106142;1279;22517;-60
2023/06/01 09:06:26;;;;;;;4.70;0.70;;;;;;;22.59;38.07;100262.92;106102;1279;22524;-60
2023/06/01 09:08:57;;;;;;;5.70;0.90;;;;;;;22.62;37.04;100265.26;106092;1279;25276;-59
2023/06/01 09:11:29;;;;;;;3.40;0.70;;;;;;;22.62;37.24;100263.35;110082;1268;22577;-60
2023/06/01 09:14:00;;;;;;;7.60;0.60;;;;;;;22.66;37.14;100266.05;110097;1274;22261;-61
2023/06/01 09:16:39;;;;;;;3.50;0.50;;;;;;;22.69;37.15;100262.98;110097;1268;22310;-64
2023/06/01 09:19:10;;;;;;;3.50;0.50;;;;;;;22.76;36.08;100265.59;110094;1274;22883;-61
2023/06/01 09:21:41;;;;;;;2.50;0.60;;;;;;;22.78;35.90;100259.66;110114;1271;22214;-61
2023/06/01 09:24:21;;;;;;;2.80;0.50;;;;;;;22.79;35.64;100259.75;110109;1279;22955;-61
2023/06/01 09:26:58;;;;;;;3.70;0.60;;;;;;;22.80;36.14;100250.34;110076;1279;22166;-66
2023/06/01 09:29:29;;;;;;;3.20;0.50;;;;;;;22.86;36.52;100248.23;110095;1272;23031;-61
2023/06/01 09:32:02;;;;;;;9.00;1.00;;;;;;;22.91;35.93;100252.61;110097;1272;22139;-63
2023/06/01 09:34:45;;;;;;;4.80;0.60;;;;;;;22.99;36.12;100244.94;110105;1264;23094;-62
2023/06/01 09:37:16;;;;;;;4.30;0.50;;;;;;;23.14;35.95;100246.52;110081;1272;22181;-62
2023/06/01 09:39:48;;;;;;;2.90;0.60;;;;;;;23.23;36.13;100241.91;110106;1271;22936;-62
2023/06/01 09:42:31;;;;;;;3.90;0.70;;;;;;;23.30;36.10;100237.98;110086;1263;22359;-61
2023/06/01 09:45:27;;;;;;;2.80;0.60;;;;;;;23.38;35.81;100235.27;110106;1279;22133;-62
2023/06/01 09:48:19;;;;;;;2.60;0.60;;;;;;;23.35;35.22;100228.91;110078;1279;22258;-62
2023/06/01 09:50:50;;;;;;;4.00;0.60;;;;;;;23.39;36.04;100230.48;110033;1279;22877;-61
2023/06/01 09:53:21;;;;;;;6.70;0.70;;;;;;;23.51;36.01;100230.02;110098;1276;22978;-61
2023/06/01 09:56:01;;;;;;;4.90;0.70;;;;;;;23.67;35.69;100229.39;110057;1274;22295;-61
2023/06/01 09:58:32;;;;;;;;;;;;;;;23.81;35.63;100232.60;110115;1273;22417;-61
2023/06/01 10:01:04;;;;;;;8.40;0.70;;;;;;;23.91;35.09;100228.77;110081;1273;22165;-61
2023/06/01 10:03:37;;;;;;;5.60;0.70;;;;;;;23.97;35.00;100221.97;110126;1271;23104;-61
2023/06/01 10:06:11;;;;;;;6.40;1.20;;;;;;;23.98;34.72;100219.80;110127;1279;22140;-61
2023/06/01 10:08:44;;;;;;;3.40;0.70;;;;;;;23.99;34.88;100219.88;110095;1272;22164;-62
2023/06/01 10:11:15;;;;;;;4.30;0.90;;;;;;;24.01;34.54;100221.06;110093;1274;22326;-61
2023/06/01 10:13:46;;;;;;;5.10;0.60;;;;;;;24.06;34.66;100215.05;110096;1268;22173;-61
2023/06/01 10:16:17;;;;;;;10.90;0.70;;;;;;;24.10;34.64;100217.86;110109;1274;22153;-61
2023/06/01 10:18:50;;;;;;;5.80;0.60;;;;;;;24.13;34.22;100215.04;110091;1276;22302;-62
2023/06/01 10:21:22;;;;;;;6.10;0.50;;;;;;;24.15;34.44;100214.77;110132;1265;24776;-61
2023/06/01 10:23:53;;;;;;;3.60;0.60;;;;;;;24.13;34.34;100206.26;110146;1279;22158;-61
2023/06/01 10:26:26;;;;;;;5.30;1.00;;;;;;;24.12;34.67;100206.77;110106;1274;22270;-62
2023/06/01 10:28:58;;;;;;;4.40;0.60;;;;;;;24.14;34.74;100206.56;110098;1274;22182;-61
2023/06/01 10:31:40;;;;;;;6.80;0.80;;;;;;;24.21;35.06;100199.61;110121;1274;22163;-62
2023/06/01 10:34:12;;;;;;;6.20;0.60;;;;;;;24.26;34.74;100196.82;110105;1274;22248;-62
2023/06/01 10:37:17;;;;;;;2.70;0.50;;;;;;;24.25;34.27;100200.81;110118;1272;22901;-61
2023/06/01 10:39:48;;;;;;;5.90;0.70;;;;;;;24.20;34.39;100199.92;107924;1279;24264;-61
2023/06/01 10:42:41;;;;;;;4.00;0.60;;;;;;;24.18;34.55;100199.20;106068;1279;23053;-61
2023/06/01 10:45:39;;;;;;;3.70;0.70;;;;;;;24.19;34.88;100203.88;106108;1279;22523;-61
2023/06/01 10:48:11;;;;;;;6.30;0.70;;;;;;;24.21;34.77;100201.86;110111;1279;22625;-61
2023/06/01 10:50:43;;;;;;;3.10;0.50;;;;;;;24.18;34.90;100202.02;110119;1277;22988;-61
2023/06/01 10:53:33;;;;;;;6.90;0.80;;;;;;;24.22;35.01;100198.55;110129;1274;22172;-62
2023/06/01 10:56:32;;;;;;;3.70;0.70;;;;;;;24.30;35.00;100192.86;110065;1267;23146;-62
2023/06/01 10:59:15;;;;;;;3.40;0.60;;;;;;;24.41;35.36;100184.86;109830;1271;22220;-61
2023/06/01 11:02:04;;;;;;;2.60;0.60;;;;;;;24.49;35.28;100187.63;109796;1277;22191;-61
2023/06/01 11:04:38;;;;;;;10.00;0.70;;;;;;;24.53;34.45;100189.83;109821;1273;22343;-62
2023/06/01 11:07:39;;;;;;;6.80;0.90;;;;;;;24.49;34.51;100183.33;109832;1270;22258;-62
2023/06/01 11:10:10;;;;;;;4.80;0.60;;;;;;;24.46;34.65;100182.02;109835;1276;22707;-61
2023/06/01 11:13:14;;;;;;;4.60;0.80;;;;;;;24.50;34.09;100183.03;109827;1270;22233;-62
2023/06/01 11:16:22;;;;;;;6.20;0.60;;;;;;;24.54;33.10;100181.77;105751;1271;22733;-62
2023/06/01 11:18:57;;;;;;;3.60;0.60;;;;;;;24.57;32.78;100183.19;109817;1273;22198;-62
2023/06/01 11:21:30;;;;;;;2.90;0.60;;;;;;;24.56;32.74;100176.98;109791;1276;22349;-61
2023/06/01 11:24:04;;;;;;;5.70;0.50;;;;;;;24.62;32.67;100172.65;109839;1272;22189;-61
2023/06/01 11:26:39;;;;;;;3.30;0.70;;;;;;;24.69;32.56;100168.20;109815;1271;22408;-62
2023/06/01 11:29:15;;;;;;;5.30;0.70;;;;;;;24.71;32.24;100170.93;109832;1280;22245;-62
2023/06/01 11:31:48;;;;;;;6.50;0.70;;;;;;;24.68;32.35;100165.77;109853;1270;22417;-62
2023/06/01 11:34:20;;;;;;;5.20;0.60;;;;;;;24.66;32.59;100159.89;109865;1279;22976;-62
2023/06/01 11:36:51;;;;;;;2.90;0.60;;;;;;;24.66;32.13;100157.79;110093;1274;22650;-62
2023/06/01 11:39:25;;;;;;;5.30;0.70;;;;;;;24.69;32.24;100154.77;110123;1265;23359;-61
2023/06/01 11:42:07;;;;;;;4.10;0.80;;;;;;;24.77;32.43;100151.09;110124;1279;22660;-62